Whallonsburg, New York
Current Conditions -  °F | °C
As of 9:54 PM on Monday 22 Dec 2014 (Local Time) from KBTV Reporting Station
Haze Haze  
Wind Chill: 26°   Ceiling: 4700
Heat Index: 26°   Visibility: 5mi
Dew Point: 20°   Wind: 3mph
Humidity: 78%   Direction: 350°N
Pressure: 30.28"   Gusts: NA
Location:  44.287°N, 73.399°W
Report Text: KBTV 230254Z 35003KT 5SM BR OVC047 M03/M07 A3028 RMK AO2 SLP260 T10331067 58006
Loading
Personal Weather Stations






























Interactive Weather Map New forecast layout! Learn more

10-Day Weather Forecast

Advertisements
Track Severe Weather on mobile